Terminal Aerodrome Forecast
Issued by NWS

Home | Current Version | Previous Version | Text Only | Print | Product List | Glossary On
Versions: 1 2 3 4 5 6 7 8 9 10 11 12 13 14 15 16 17 18 19 20 21 22 23 24 25 26 27 28 29 30 31 32 33 34 35 36 37 38 39 40 41 42 43 44 45 46 47 48 49 50
000
FTUS45 KBOU 030658 AAA
TAFAPA
TAF AMD
KAPA 030658Z 0307/0406 15007KT P6SM BKN120 OVC200
     FM030900 18009KT P6SM BKN120 BKN200
     FM031700 12010KT P6SM SCT120 BKN180
     FM032100 15013G18KT P6SM VCTS SCT070CB BKN100 OVC150
      TEMPO 0321/0401 VRB20G35KT 5SM TSRA BKN060CB OVC100
     FM040100 29010G15KT P6SM VCSH SCT070 BKN120
     FM040500 20008KT P6SM FEW130 SCT200=

USA.gov is the U.S. government's official web portal to all federal, state and local government web resources and services.